sensor_id;sensor_type;location;lat;lon;timestamp;P1;durP1;ratioP1;P2;durP2;ratioP2
70707;SDS011;58277;47.316;18.908;2022-12-07T00:01:49;33.25;;;15.02;;
70707;SDS011;58277;47.316;18.908;2022-12-07T00:04:13;33.95;;;14.52;;
70707;SDS011;58277;47.316;18.908;2022-12-07T00:06:38;32.60;;;13.38;;
70707;SDS011;58277;47.316;18.908;2022-12-07T00:09:06;32.00;;;14.40;;
70707;SDS011;58277;47.316;18.908;2022-12-07T00:11:31;35.30;;;14.63;;
70707;SDS011;58277;47.316;18.908;2022-12-07T00:13:54;32.28;;;14.02;;
70707;SDS011;58277;47.316;18.908;2022-12-07T00:16:20;29.85;;;13.50;;
70707;SDS011;58277;47.316;18.908;2022-12-07T00:18:44;31.92;;;13.88;;
70707;SDS011;58277;47.316;18.908;2022-12-07T00:21:18;30.40;;;14.32;;
70707;SDS011;58277;47.316;18.908;2022-12-07T00:23:43;29.50;;;13.47;;
70707;SDS011;58277;47.316;18.908;2022-12-07T00:26:08;31.08;;;13.45;;
70707;SDS011;58277;47.316;18.908;2022-12-07T00:28:35;28.98;;;13.93;;
70707;SDS011;58277;47.316;18.908;2022-12-07T00:31:08;29.27;;;13.32;;
70707;SDS011;58277;47.316;18.908;2022-12-07T00:33:33;29.55;;;13.45;;
70707;SDS011;58277;47.316;18.908;2022-12-07T00:35:57;29.67;;;12.90;;
70707;SDS011;58277;47.316;18.908;2022-12-07T00:38:20;29.48;;;12.57;;
70707;SDS011;58277;47.316;18.908;2022-12-07T00:40:43;32.58;;;13.82;;
70707;SDS011;58277;47.316;18.908;2022-12-07T00:43:06;28.13;;;12.77;;
70707;SDS011;58277;47.316;18.908;2022-12-07T00:45:28;29.85;;;12.73;;
70707;SDS011;58277;47.316;18.908;2022-12-07T00:47:51;30.00;;;12.67;;
70707;SDS011;58277;47.316;18.908;2022-12-07T00:50:14;26.58;;;12.65;;
70707;SDS011;58277;47.316;18.908;2022-12-07T00:52:36;26.48;;;12.65;;
70707;SDS011;58277;47.316;18.908;2022-12-07T00:54:59;25.60;;;12.07;;
70707;SDS011;58277;47.316;18.908;2022-12-07T00:57:22;26.83;;;12.10;;
70707;SDS011;58277;47.316;18.908;2022-12-07T00:59:44;27.73;;;11.97;;
70707;SDS011;58277;47.316;18.908;2022-12-07T01:02:07;24.95;;;12.23;;
70707;SDS011;58277;47.316;18.908;2022-12-07T01:04:29;27.08;;;12.32;;
70707;SDS011;58277;47.316;18.908;2022-12-07T01:06:52;25.42;;;11.63;;
70707;SDS011;58277;47.316;18.908;2022-12-07T01:09:15;25.38;;;11.95;;
70707;SDS011;58277;47.316;18.908;2022-12-07T01:11:37;25.17;;;11.57;;
70707;SDS011;58277;47.316;18.908;2022-12-07T01:14:00;26.60;;;11.85;;
70707;SDS011;58277;47.316;18.908;2022-12-07T01:16:24;24.70;;;12.07;;
70707;SDS011;58277;47.316;18.908;2022-12-07T01:18:49;24.55;;;11.45;;
70707;SDS011;58277;47.316;18.908;2022-12-07T01:21:23;25.50;;;11.95;;
70707;SDS011;58277;47.316;18.908;2022-12-07T01:23:47;25.07;;;11.80;;
70707;SDS011;58277;47.316;18.908;2022-12-07T01:26:11;27.30;;;12.20;;
70707;SDS011;58277;47.316;18.908;2022-12-07T01:28:36;25.17;;;11.77;;
70707;SDS011;58277;47.316;18.908;2022-12-07T01:31:00;27.77;;;12.05;;
70707;SDS011;58277;47.316;18.908;2022-12-07T01:33:26;25.08;;;11.18;;
70707;SDS011;58277;47.316;18.908;2022-12-07T01:35:49;26.33;;;12.63;;
70707;SDS011;58277;47.316;18.908;2022-12-07T01:38:12;25.85;;;11.93;;
70707;SDS011;58277;47.316;18.908;2022-12-07T01:40:34;24.83;;;11.93;;
70707;SDS011;58277;47.316;18.908;2022-12-07T01:42:58;24.38;;;11.82;;
70707;SDS011;58277;47.316;18.908;2022-12-07T01:48:04;25.53;;;12.13;;
70707;SDS011;58277;47.316;18.908;2022-12-07T01:50:28;29.45;;;12.88;;
70707;SDS011;58277;47.316;18.908;2022-12-07T01:52:54;28.90;;;12.60;;
70707;SDS011;58277;47.316;18.908;2022-12-07T01:55:21;26.60;;;12.35;;
70707;SDS011;58277;47.316;18.908;2022-12-07T01:57:45;27.48;;;12.82;;
70707;SDS011;58277;47.316;18.908;2022-12-07T02:00:11;26.93;;;11.83;;
70707;SDS011;58277;47.316;18.908;2022-12-07T02:02:34;24.50;;;11.57;;
70707;SDS011;58277;47.316;18.908;2022-12-07T02:05:24;25.48;;;12.18;;
70707;SDS011;58277;47.316;18.908;2022-12-07T02:07:47;25.60;;;11.43;;
70707;SDS011;58277;47.316;18.908;2022-12-07T02:12:36;24.00;;;11.50;;
70707;SDS011;58277;47.316;18.908;2022-12-07T02:14:59;24.63;;;11.68;;
70707;SDS011;58277;47.316;18.908;2022-12-07T02:17:25;24.80;;;12.10;;
70707;SDS011;58277;47.316;18.908;2022-12-07T02:28:36;27.98;;;12.35;;
70707;SDS011;58277;47.316;18.908;2022-12-07T02:31:19;27.80;;;13.05;;
70707;SDS011;58277;47.316;18.908;2022-12-07T02:36:50;29.67;;;13.02;;
70707;SDS011;58277;47.316;18.908;2022-12-07T02:39:23;25.97;;;11.87;;
70707;SDS011;58277;47.316;18.908;2022-12-07T02:41:55;30.42;;;12.57;;
70707;SDS011;58277;47.316;18.908;2022-12-07T02:44:22;27.60;;;12.85;;
70707;SDS011;58277;47.316;18.908;2022-12-07T02:47:07;25.98;;;11.95;;
70707;SDS011;58277;47.316;18.908;2022-12-07T02:49:33;23.60;;;11.93;;
70707;SDS011;58277;47.316;18.908;2022-12-07T02:51:57;27.17;;;12.70;;
70707;SDS011;58277;47.316;18.908;2022-12-07T02:54:20;25.27;;;12.13;;
70707;SDS011;58277;47.316;18.908;2022-12-07T03:04:19;25.77;;;13.00;;
70707;SDS011;58277;47.316;18.908;2022-12-07T03:10:08;29.42;;;12.45;;
70707;SDS011;58277;47.316;18.908;2022-12-07T03:12:53;28.38;;;12.82;;
70707;SDS011;58277;47.316;18.908;2022-12-07T03:15:31;29.23;;;13.55;;
70707;SDS011;58277;47.316;18.908;2022-12-07T03:18:02;28.70;;;12.50;;
70707;SDS011;58277;47.316;18.908;2022-12-07T03:20:26;29.55;;;13.27;;
70707;SDS011;58277;47.316;18.908;2022-12-07T03:22:51;28.08;;;12.63;;
70707;SDS011;58277;47.316;18.908;2022-12-07T03:25:16;25.63;;;12.27;;
70707;SDS011;58277;47.316;18.908;2022-12-07T03:27:41;27.45;;;12.98;;
70707;SDS011;58277;47.316;18.908;2022-12-07T03:30:10;27.40;;;12.47;;
70707;SDS011;58277;47.316;18.908;2022-12-07T03:32:45;24.10;;;12.30;;
70707;SDS011;58277;47.316;18.908;2022-12-07T03:35:26;28.63;;;12.48;;
70707;SDS011;58277;47.316;18.908;2022-12-07T03:40:45;27.25;;;12.95;;
70707;SDS011;58277;47.316;18.908;2022-12-07T03:43:20;28.47;;;13.67;;
70707;SDS011;58277;47.316;18.908;2022-12-07T03:45:44;26.52;;;12.77;;
70707;SDS011;58277;47.316;18.908;2022-12-07T03:48:33;29.58;;;13.40;;
70707;SDS011;58277;47.316;18.908;2022-12-07T03:53:54;28.48;;;12.25;;
70707;SDS011;58277;47.316;18.908;2022-12-07T03:56:24;24.87;;;11.80;;
70707;SDS011;58277;47.316;18.908;2022-12-07T03:58:49;25.85;;;12.30;;
70707;SDS011;58277;47.316;18.908;2022-12-07T04:01:12;29.80;;;13.40;;
70707;SDS011;58277;47.316;18.908;2022-12-07T04:03:34;30.25;;;13.88;;
70707;SDS011;58277;47.316;18.908;2022-12-07T04:05:57;28.17;;;13.20;;
70707;SDS011;58277;47.316;18.908;2022-12-07T04:08:20;26.07;;;12.53;;
70707;SDS011;58277;47.316;18.908;2022-12-07T04:10:43;29.17;;;14.02;;
70707;SDS011;58277;47.316;18.908;2022-12-07T04:13:06;32.90;;;14.45;;
70707;SDS011;58277;47.316;18.908;2022-12-07T04:15:29;31.23;;;14.55;;
70707;SDS011;58277;47.316;18.908;2022-12-07T04:17:51;34.28;;;15.38;;
70707;SDS011;58277;47.316;18.908;2022-12-07T04:20:14;31.93;;;13.87;;
70707;SDS011;58277;47.316;18.908;2022-12-07T04:22:37;30.23;;;14.02;;
70707;SDS011;58277;47.316;18.908;2022-12-07T04:24:59;28.70;;;13.25;;
70707;SDS011;58277;47.316;18.908;2022-12-07T04:27:22;25.55;;;12.75;;
70707;SDS011;58277;47.316;18.908;2022-12-07T04:29:45;24.58;;;12.48;;
70707;SDS011;58277;47.316;18.908;2022-12-07T04:32:07;30.10;;;13.00;;
70707;SDS011;58277;47.316;18.908;2022-12-07T04:34:30;25.58;;;11.75;;
70707;SDS011;58277;47.316;18.908;2022-12-07T04:36:52;27.25;;;12.15;;
70707;SDS011;58277;47.316;18.908;2022-12-07T04:39:20;27.15;;;12.27;;
70707;SDS011;58277;47.316;18.908;2022-12-07T04:41:44;27.13;;;12.60;;
70707;SDS011;58277;47.316;18.908;2022-12-07T04:44:08;25.87;;;11.83;;
70707;SDS011;58277;47.316;18.908;2022-12-07T04:46:31;23.95;;;12.68;;
70707;SDS011;58277;47.316;18.908;2022-12-07T04:48:54;26.50;;;12.23;;
70707;SDS011;58277;47.316;18.908;2022-12-07T04:51:21;25.10;;;11.85;;
70707;SDS011;58277;47.316;18.908;2022-12-07T04:53:45;24.90;;;11.93;;
70707;SDS011;58277;47.316;18.908;2022-12-07T04:56:08;23.70;;;11.43;;
70707;SDS011;58277;47.316;18.908;2022-12-07T04:58:30;25.85;;;12.07;;
70707;SDS011;58277;47.316;18.908;2022-12-07T05:00:54;24.20;;;11.65;;
70707;SDS011;58277;47.316;18.908;2022-12-07T05:03:17;25.38;;;12.25;;
70707;SDS011;58277;47.316;18.908;2022-12-07T05:05:40;26.02;;;11.88;;
70707;SDS011;58277;47.316;18.908;2022-12-07T05:08:04;25.07;;;11.73;;
70707;SDS011;58277;47.316;18.908;2022-12-07T05:10:27;25.85;;;11.98;;
70707;SDS011;58277;47.316;18.908;2022-12-07T05:12:49;27.23;;;12.13;;
70707;SDS011;58277;47.316;18.908;2022-12-07T05:15:12;27.75;;;12.38;;
70707;SDS011;58277;47.316;18.908;2022-12-07T05:17:36;27.40;;;12.50;;
70707;SDS011;58277;47.316;18.908;2022-12-07T05:19:59;27.87;;;12.13;;
70707;SDS011;58277;47.316;18.908;2022-12-07T05:22:22;27.67;;;12.13;;
70707;SDS011;58277;47.316;18.908;2022-12-07T05:24:45;27.98;;;12.77;;
70707;SDS011;58277;47.316;18.908;2022-12-07T05:27:07;28.92;;;12.73;;
70707;SDS011;58277;47.316;18.908;2022-12-07T05:29:30;25.67;;;12.27;;
70707;SDS011;58277;47.316;18.908;2022-12-07T05:31:52;25.67;;;12.07;;
70707;SDS011;58277;47.316;18.908;2022-12-07T05:34:15;24.70;;;11.75;;
70707;SDS011;58277;47.316;18.908;2022-12-07T05:36:38;24.95;;;12.00;;
70707;SDS011;58277;47.316;18.908;2022-12-07T05:39:01;25.55;;;11.40;;
70707;SDS011;58277;47.316;18.908;2022-12-07T05:41:23;24.25;;;11.45;;
70707;SDS011;58277;47.316;18.908;2022-12-07T05:44:05;23.80;;;11.57;;
70707;SDS011;58277;47.316;18.908;2022-12-07T05:46:28;25.65;;;11.55;;
70707;SDS011;58277;47.316;18.908;2022-12-07T05:48:51;22.85;;;11.60;;
70707;SDS011;58277;47.316;18.908;2022-12-07T05:51:13;25.52;;;11.95;;
70707;SDS011;58277;47.316;18.908;2022-12-07T05:53:36;25.17;;;11.95;;
70707;SDS011;58277;47.316;18.908;2022-12-07T05:55:59;25.10;;;12.03;;
70707;SDS011;58277;47.316;18.908;2022-12-07T05:58:21;24.52;;;11.90;;
70707;SDS011;58277;47.316;18.908;2022-12-07T06:01:03;23.02;;;11.85;;
70707;SDS011;58277;47.316;18.908;2022-12-07T06:03:25;25.23;;;12.52;;
70707;SDS011;58277;47.316;18.908;2022-12-07T06:05:48;25.58;;;12.65;;
70707;SDS011;58277;47.316;18.908;2022-12-07T06:08:11;23.50;;;11.30;;
70707;SDS011;58277;47.316;18.908;2022-12-07T06:10:34;25.95;;;12.40;;
70707;SDS011;58277;47.316;18.908;2022-12-07T06:13:00;24.52;;;11.88;;
70707;SDS011;58277;47.316;18.908;2022-12-07T06:15:22;23.95;;;11.95;;
70707;SDS011;58277;47.316;18.908;2022-12-07T06:17:48;35.65;;;15.55;;
70707;SDS011;58277;47.316;18.908;2022-12-07T06:20:11;26.90;;;12.63;;
70707;SDS011;58277;47.316;18.908;2022-12-07T06:22:33;23.80;;;11.80;;
70707;SDS011;58277;47.316;18.908;2022-12-07T06:24:56;25.25;;;11.88;;
70707;SDS011;58277;47.316;18.908;2022-12-07T06:27:19;25.23;;;12.00;;
70707;SDS011;58277;47.316;18.908;2022-12-07T06:29:42;24.17;;;11.65;;
70707;SDS011;58277;47.316;18.908;2022-12-07T06:32:05;24.57;;;11.93;;
70707;SDS011;58277;47.316;18.908;2022-12-07T06:34:28;26.30;;;12.10;;
70707;SDS011;58277;47.316;18.908;2022-12-07T06:36:51;28.98;;;11.93;;
70707;SDS011;58277;47.316;18.908;2022-12-07T06:39:15;25.90;;;11.48;;
70707;SDS011;58277;47.316;18.908;2022-12-07T06:41:38;26.40;;;12.18;;
70707;SDS011;58277;47.316;18.908;2022-12-07T06:44:01;24.47;;;11.73;;
70707;SDS011;58277;47.316;18.908;2022-12-07T06:46:25;26.08;;;11.68;;
70707;SDS011;58277;47.316;18.908;2022-12-07T06:48:48;25.58;;;11.80;;
70707;SDS011;58277;47.316;18.908;2022-12-07T06:51:14;24.77;;;12.32;;
70707;SDS011;58277;47.316;18.908;2022-12-07T06:53:38;22.20;;;10.98;;
70707;SDS011;58277;47.316;18.908;2022-12-07T06:56:01;26.37;;;12.10;;
70707;SDS011;58277;47.316;18.908;2022-12-07T06:58:24;26.00;;;12.60;;
70707;SDS011;58277;47.316;18.908;2022-12-07T07:00:48;22.80;;;11.38;;
70707;SDS011;58277;47.316;18.908;2022-12-07T07:03:11;23.40;;;10.88;;
70707;SDS011;58277;47.316;18.908;2022-12-07T07:05:34;27.83;;;12.25;;
70707;SDS011;58277;47.316;18.908;2022-12-07T07:07:58;27.40;;;12.43;;
70707;SDS011;58277;47.316;18.908;2022-12-07T07:10:41;25.88;;;12.43;;
70707;SDS011;58277;47.316;18.908;2022-12-07T07:13:04;27.15;;;12.98;;
70707;SDS011;58277;47.316;18.908;2022-12-07T07:15:27;25.77;;;12.15;;
70707;SDS011;58277;47.316;18.908;2022-12-07T07:17:50;25.98;;;12.07;;
70707;SDS011;58277;47.316;18.908;2022-12-07T07:20:13;26.23;;;11.97;;
70707;SDS011;58277;47.316;18.908;2022-12-07T07:22:36;25.95;;;12.13;;
70707;SDS011;58277;47.316;18.908;2022-12-07T07:24:59;26.90;;;12.60;;
70707;SDS011;58277;47.316;18.908;2022-12-07T07:27:21;27.63;;;12.48;;
70707;SDS011;58277;47.316;18.908;2022-12-07T07:29:44;26.08;;;12.15;;
70707;SDS011;58277;47.316;18.908;2022-12-07T07:32:07;26.57;;;12.10;;
70707;SDS011;58277;47.316;18.908;2022-12-07T07:34:29;29.63;;;13.45;;
70707;SDS011;58277;47.316;18.908;2022-12-07T07:36:52;30.05;;;13.60;;
70707;SDS011;58277;47.316;18.908;2022-12-07T07:39:15;26.27;;;12.48;;
70707;SDS011;58277;47.316;18.908;2022-12-07T07:41:38;27.17;;;13.23;;
70707;SDS011;58277;47.316;18.908;2022-12-07T07:44:07;29.50;;;14.17;;
70707;SDS011;58277;47.316;18.908;2022-12-07T07:46:29;27.77;;;12.95;;
70707;SDS011;58277;47.316;18.908;2022-12-07T07:48:52;26.90;;;13.43;;
70707;SDS011;58277;47.316;18.908;2022-12-07T07:51:16;26.65;;;13.02;;
70707;SDS011;58277;47.316;18.908;2022-12-07T07:53:39;24.27;;;12.40;;
70707;SDS011;58277;47.316;18.908;2022-12-07T07:56:02;26.83;;;12.33;;
70707;SDS011;58277;47.316;18.908;2022-12-07T07:58:25;26.40;;;13.02;;
70707;SDS011;58277;47.316;18.908;2022-12-07T08:00:48;28.38;;;13.80;;
70707;SDS011;58277;47.316;18.908;2022-12-07T08:03:11;27.90;;;13.82;;
70707;SDS011;58277;47.316;18.908;2022-12-07T08:05:36;27.95;;;12.60;;
70707;SDS011;58277;47.316;18.908;2022-12-07T08:07:59;27.30;;;13.77;;
70707;SDS011;58277;47.316;18.908;2022-12-07T08:10:22;28.67;;;12.05;;
70707;SDS011;58277;47.316;18.908;2022-12-07T08:12:45;24.80;;;12.60;;
70707;SDS011;58277;47.316;18.908;2022-12-07T08:15:27;25.55;;;12.85;;
70707;SDS011;58277;47.316;18.908;2022-12-07T08:17:51;23.45;;;12.50;;
70707;SDS011;58277;47.316;18.908;2022-12-07T08:20:14;29.63;;;13.87;;
70707;SDS011;58277;47.316;18.908;2022-12-07T08:22:37;25.55;;;11.93;;
70707;SDS011;58277;47.316;18.908;2022-12-07T08:24:59;25.67;;;11.88;;
70707;SDS011;58277;47.316;18.908;2022-12-07T08:27:22;25.63;;;12.32;;
70707;SDS011;58277;47.316;18.908;2022-12-07T08:29:49;25.30;;;12.10;;
70707;SDS011;58277;47.316;18.908;2022-12-07T08:32:11;22.83;;;11.77;;
70707;SDS011;58277;47.316;18.908;2022-12-07T08:34:34;24.65;;;11.68;;
70707;SDS011;58277;47.316;18.908;2022-12-07T08:36:58;26.00;;;12.38;;
70707;SDS011;58277;47.316;18.908;2022-12-07T08:39:21;24.77;;;12.27;;
70707;SDS011;58277;47.316;18.908;2022-12-07T08:41:52;26.02;;;12.32;;
70707;SDS011;58277;47.316;18.908;2022-12-07T08:44:15;24.60;;;12.23;;
70707;SDS011;58277;47.316;18.908;2022-12-07T08:46:39;26.30;;;12.32;;
70707;SDS011;58277;47.316;18.908;2022-12-07T08:49:27;23.83;;;11.57;;
70707;SDS011;58277;47.316;18.908;2022-12-07T08:51:56;25.92;;;12.02;;
70707;SDS011;58277;47.316;18.908;2022-12-07T08:54:19;36.90;;;18.25;;
70707;SDS011;58277;47.316;18.908;2022-12-07T08:56:42;34.77;;;16.40;;
70707;SDS011;58277;47.316;18.908;2022-12-07T08:59:06;28.83;;;13.43;;
70707;SDS011;58277;47.316;18.908;2022-12-07T09:01:29;27.67;;;13.70;;
70707;SDS011;58277;47.316;18.908;2022-12-07T09:03:53;24.27;;;11.57;;
70707;SDS011;58277;47.316;18.908;2022-12-07T09:06:15;22.85;;;10.85;;
70707;SDS011;58277;47.316;18.908;2022-12-07T09:08:40;22.67;;;11.23;;
70707;SDS011;58277;47.316;18.908;2022-12-07T09:11:07;22.13;;;11.10;;
70707;SDS011;58277;47.316;18.908;2022-12-07T09:13:30;22.60;;;10.52;;
70707;SDS011;58277;47.316;18.908;2022-12-07T09:15:53;21.42;;;10.75;;
70707;SDS011;58277;47.316;18.908;2022-12-07T09:18:16;21.15;;;10.30;;
70707;SDS011;58277;47.316;18.908;2022-12-07T09:20:39;20.33;;;10.10;;
70707;SDS011;58277;47.316;18.908;2022-12-07T09:23:01;22.08;;;10.10;;
70707;SDS011;58277;47.316;18.908;2022-12-07T09:25:24;20.27;;;10.30;;
70707;SDS011;58277;47.316;18.908;2022-12-07T09:27:47;22.02;;;10.13;;
70707;SDS011;58277;47.316;18.908;2022-12-07T09:30:10;20.88;;;11.23;;
70707;SDS011;58277;47.316;18.908;2022-12-07T09:32:33;19.20;;;9.53;;
70707;SDS011;58277;47.316;18.908;2022-12-07T09:34:55;20.65;;;10.80;;
70707;SDS011;58277;47.316;18.908;2022-12-07T09:37:18;22.30;;;10.70;;
70707;SDS011;58277;47.316;18.908;2022-12-07T09:39:41;20.15;;;10.35;;
70707;SDS011;58277;47.316;18.908;2022-12-07T09:42:13;21.83;;;11.10;;
70707;SDS011;58277;47.316;18.908;2022-12-07T09:44:47;21.27;;;10.77;;
70707;SDS011;58277;47.316;18.908;2022-12-07T09:47:10;24.75;;;11.52;;
70707;SDS011;58277;47.316;18.908;2022-12-07T09:49:33;22.02;;;11.25;;
70707;SDS011;58277;47.316;18.908;2022-12-07T09:54:31;24.67;;;12.55;;
70707;SDS011;58277;47.316;18.908;2022-12-07T09:56:59;25.17;;;12.27;;
70707;SDS011;58277;47.316;18.908;2022-12-07T09:59:22;22.08;;;11.30;;
70707;SDS011;58277;47.316;18.908;2022-12-07T10:01:48;25.83;;;12.70;;
70707;SDS011;58277;47.316;18.908;2022-12-07T10:04:13;25.60;;;12.30;;
70707;SDS011;58277;47.316;18.908;2022-12-07T10:06:39;23.23;;;11.10;;
70707;SDS011;58277;47.316;18.908;2022-12-07T10:09:07;22.20;;;11.50;;
70707;SDS011;58277;47.316;18.908;2022-12-07T10:11:32;21.63;;;10.73;;
70707;SDS011;58277;47.316;18.908;2022-12-07T10:13:55;22.65;;;11.20;;
70707;SDS011;58277;47.316;18.908;2022-12-07T10:24:24;22.55;;;11.15;;
70707;SDS011;58277;47.316;18.908;2022-12-07T10:29:22;22.98;;;11.25;;
70707;SDS011;58277;47.316;18.908;2022-12-07T10:32:02;23.13;;;11.38;;
70707;SDS011;58277;47.316;18.908;2022-12-07T10:45:06;19.98;;;10.55;;
70707;SDS011;58277;47.316;18.908;2022-12-07T10:47:45;20.40;;;10.57;;
70707;SDS011;58277;47.316;18.908;2022-12-07T10:50:40;20.05;;;10.05;;
70707;SDS011;58277;47.316;18.908;2022-12-07T10:58:26;21.02;;;10.18;;
70707;SDS011;58277;47.316;18.908;2022-12-07T11:14:58;21.15;;;9.48;;
70707;SDS011;58277;47.316;18.908;2022-12-07T11:17:48;17.88;;;8.20;;
70707;SDS011;58277;47.316;18.908;2022-12-07T11:28:58;16.80;;;8.68;;
70707;SDS011;58277;47.316;18.908;2022-12-07T11:36:52;18.67;;;8.93;;
70707;SDS011;58277;47.316;18.908;2022-12-07T11:39:25;18.35;;;9.40;;
70707;SDS011;58277;47.316;18.908;2022-12-07T11:42:09;17.88;;;9.15;;
70707;SDS011;58277;47.316;18.908;2022-12-07T11:47:16;22.20;;;10.50;;
70707;SDS011;58277;47.316;18.908;2022-12-07T11:52:48;18.35;;;9.45;;
70707;SDS011;58277;47.316;18.908;2022-12-07T11:55:40;20.08;;;9.55;;
70707;SDS011;58277;47.316;18.908;2022-12-07T12:06:33;19.02;;;9.25;;
70707;SDS011;58277;47.316;18.908;2022-12-07T12:09:05;17.23;;;8.63;;
70707;SDS011;58277;47.316;18.908;2022-12-07T12:12:05;17.45;;;8.52;;
70707;SDS011;58277;47.316;18.908;2022-12-07T12:22:41;19.40;;;9.23;;
70707;SDS011;58277;47.316;18.908;2022-12-07T12:25:07;17.63;;;9.07;;
70707;SDS011;58277;47.316;18.908;2022-12-07T12:27:45;16.83;;;8.10;;
70707;SDS011;58277;47.316;18.908;2022-12-07T12:30:25;17.63;;;8.52;;
70707;SDS011;58277;47.316;18.908;2022-12-07T12:33:16;18.63;;;8.40;;
70707;SDS011;58277;47.316;18.908;2022-12-07T12:36:16;17.63;;;9.07;;
70707;SDS011;58277;47.316;18.908;2022-12-07T12:51:43;22.83;;;10.40;;
70707;SDS011;58277;47.316;18.908;2022-12-07T12:54:57;21.33;;;10.02;;
70707;SDS011;58277;47.316;18.908;2022-12-07T12:57:12;19.55;;;9.30;;
70707;SDS011;58277;47.316;18.908;2022-12-07T13:02:21;17.57;;;8.67;;
70707;SDS011;58277;47.316;18.908;2022-12-07T13:15:38;18.13;;;8.20;;
70707;SDS011;58277;47.316;18.908;2022-12-07T13:18:02;15.63;;;8.13;;
70707;SDS011;58277;47.316;18.908;2022-12-07T13:23:08;16.92;;;8.13;;
70707;SDS011;58277;47.316;18.908;2022-12-07T13:25:33;17.83;;;8.25;;
70707;SDS011;58277;47.316;18.908;2022-12-07T13:28:11;16.50;;;7.27;;
70707;SDS011;58277;47.316;18.908;2022-12-07T13:30:42;13.38;;;6.13;;
70707;SDS011;58277;47.316;18.908;2022-12-07T13:33:12;13.18;;;6.63;;
70707;SDS011;58277;47.316;18.908;2022-12-07T13:35:37;11.35;;;5.68;;
70707;SDS011;58277;47.316;18.908;2022-12-07T13:38:16;12.77;;;5.70;;
70707;SDS011;58277;47.316;18.908;2022-12-07T13:41:10;12.80;;;5.80;;
70707;SDS011;58277;47.316;18.908;2022-12-07T13:43:45;11.40;;;6.00;;
70707;SDS011;58277;47.316;18.908;2022-12-07T13:46:11;11.50;;;5.38;;
70707;SDS011;58277;47.316;18.908;2022-12-07T13:48:44;11.93;;;5.72;;
70707;SDS011;58277;47.316;18.908;2022-12-07T13:51:18;12.57;;;5.65;;
70707;SDS011;58277;47.316;18.908;2022-12-07T13:54:08;11.43;;;5.60;;
70707;SDS011;58277;47.316;18.908;2022-12-07T13:56:34;13.60;;;5.93;;
70707;SDS011;58277;47.316;18.908;2022-12-07T13:59:14;12.15;;;5.88;;
70707;SDS011;58277;47.316;18.908;2022-12-07T14:01:39;9.77;;;5.05;;
70707;SDS011;58277;47.316;18.908;2022-12-07T14:04:18;8.75;;;4.38;;
70707;SDS011;58277;47.316;18.908;2022-12-07T14:06:48;9.50;;;4.20;;
70707;SDS011;58277;47.316;18.908;2022-12-07T14:09:18;9.32;;;4.90;;
70707;SDS011;58277;47.316;18.908;2022-12-07T14:11:45;9.40;;;4.43;;
70707;SDS011;58277;47.316;18.908;2022-12-07T14:14:21;10.05;;;4.47;;
70707;SDS011;58277;47.316;18.908;2022-12-07T14:17:00;10.32;;;4.88;;
70707;SDS011;58277;47.316;18.908;2022-12-07T14:22:22;10.25;;;4.38;;
70707;SDS011;58277;47.316;18.908;2022-12-07T14:25:26;11.43;;;4.95;;
70707;SDS011;58277;47.316;18.908;2022-12-07T14:27:47;10.88;;;4.45;;
70707;SDS011;58277;47.316;18.908;2022-12-07T14:30:21;10.25;;;4.65;;
70707;SDS011;58277;47.316;18.908;2022-12-07T14:32:46;9.40;;;5.00;;
70707;SDS011;58277;47.316;18.908;2022-12-07T14:35:14;8.32;;;4.13;;
70707;SDS011;58277;47.316;18.908;2022-12-07T14:37:39;9.73;;;4.50;;
70707;SDS011;58277;47.316;18.908;2022-12-07T14:40:03;10.45;;;4.90;;
70707;SDS011;58277;47.316;18.908;2022-12-07T14:42:27;8.13;;;4.10;;
70707;SDS011;58277;47.316;18.908;2022-12-07T14:44:52;8.60;;;4.40;;
70707;SDS011;58277;47.316;18.908;2022-12-07T14:47:14;11.00;;;5.60;;
70707;SDS011;58277;47.316;18.908;2022-12-07T14:49:57;10.25;;;5.00;;
70707;SDS011;58277;47.316;18.908;2022-12-07T14:52:29;11.27;;;4.75;;
70707;SDS011;58277;47.316;18.908;2022-12-07T14:55:13;11.02;;;4.65;;
70707;SDS011;58277;47.316;18.908;2022-12-07T14:57:40;12.03;;;5.50;;
70707;SDS011;58277;47.316;18.908;2022-12-07T15:00:02;11.75;;;5.30;;
70707;SDS011;58277;47.316;18.908;2022-12-07T15:02:26;11.70;;;5.25;;
70707;SDS011;58277;47.316;18.908;2022-12-07T15:04:49;12.57;;;5.32;;
70707;SDS011;58277;47.316;18.908;2022-12-07T15:07:16;13.27;;;5.57;;
70707;SDS011;58277;47.316;18.908;2022-12-07T15:09:42;10.73;;;5.13;;
70707;SDS011;58277;47.316;18.908;2022-12-07T15:12:04;13.90;;;5.80;;
70707;SDS011;58277;47.316;18.908;2022-12-07T15:14:27;12.70;;;5.40;;
70707;SDS011;58277;47.316;18.908;2022-12-07T15:16:50;14.43;;;5.47;;
70707;SDS011;58277;47.316;18.908;2022-12-07T15:19:30;12.93;;;5.90;;
70707;SDS011;58277;47.316;18.908;2022-12-07T15:21:53;12.37;;;5.73;;
70707;SDS011;58277;47.316;18.908;2022-12-07T15:24:15;11.30;;;5.28;;
70707;SDS011;58277;47.316;18.908;2022-12-07T15:26:39;13.30;;;5.70;;
70707;SDS011;58277;47.316;18.908;2022-12-07T15:29:03;12.02;;;5.40;;
70707;SDS011;58277;47.316;18.908;2022-12-07T15:31:26;10.82;;;5.18;;
70707;SDS011;58277;47.316;18.908;2022-12-07T15:34:08;11.50;;;4.77;;
70707;SDS011;58277;47.316;18.908;2022-12-07T15:36:32;10.15;;;5.10;;
70707;SDS011;58277;47.316;18.908;2022-12-07T15:38:55;10.65;;;5.40;;
70707;SDS011;58277;47.316;18.908;2022-12-07T15:41:35;9.98;;;4.90;;
70707;SDS011;58277;47.316;18.908;2022-12-07T15:43:58;11.68;;;5.45;;
70707;SDS011;58277;47.316;18.908;2022-12-07T15:46:40;12.23;;;5.47;;
70707;SDS011;58277;47.316;18.908;2022-12-07T15:49:05;10.68;;;4.90;;
70707;SDS011;58277;47.316;18.908;2022-12-07T15:51:31;11.40;;;5.25;;
70707;SDS011;58277;47.316;18.908;2022-12-07T15:53:53;11.40;;;5.25;;
70707;SDS011;58277;47.316;18.908;2022-12-07T15:56:16;13.77;;;6.00;;
70707;SDS011;58277;47.316;18.908;2022-12-07T15:58:39;10.33;;;5.23;;
70707;SDS011;58277;47.316;18.908;2022-12-07T16:01:09;13.38;;;6.22;;
70707;SDS011;58277;47.316;18.908;2022-12-07T16:03:33;14.15;;;6.10;;
70707;SDS011;58277;47.316;18.908;2022-12-07T16:05:57;14.15;;;6.25;;
70707;SDS011;58277;47.316;18.908;2022-12-07T16:08:20;12.85;;;6.00;;
70707;SDS011;58277;47.316;18.908;2022-12-07T16:10:43;15.90;;;6.07;;
70707;SDS011;58277;47.316;18.908;2022-12-07T16:13:06;13.73;;;5.97;;
70707;SDS011;58277;47.316;18.908;2022-12-07T16:15:29;15.43;;;5.72;;
70707;SDS011;58277;47.316;18.908;2022-12-07T16:17:51;12.73;;;6.28;;
70707;SDS011;58277;47.316;18.908;2022-12-07T16:20:14;13.38;;;6.30;;
70707;SDS011;58277;47.316;18.908;2022-12-07T16:22:37;15.13;;;6.13;;
70707;SDS011;58277;47.316;18.908;2022-12-07T16:24:59;14.80;;;6.32;;
70707;SDS011;58277;47.316;18.908;2022-12-07T16:27:22;16.15;;;6.57;;
70707;SDS011;58277;47.316;18.908;2022-12-07T16:29:45;16.52;;;7.32;;
70707;SDS011;58277;47.316;18.908;2022-12-07T16:32:09;17.70;;;7.78;;
70707;SDS011;58277;47.316;18.908;2022-12-07T16:34:31;17.43;;;7.50;;
70707;SDS011;58277;47.316;18.908;2022-12-07T16:36:54;17.13;;;8.15;;